sensor_id;sensor_type;location;lat;lon;timestamp;pressure;altitude;pressure_sealevel;temperature;humidity
51083;BME280;37131;42.694;23.350;2022-12-10T00:01:17;94861.66;;;7.44;100.00
51083;BME280;37131;42.694;23.350;2022-12-10T00:03:43;94868.66;;;7.43;100.00
51083;BME280;37131;42.694;23.350;2022-12-10T00:06:10;94867.00;;;7.49;100.00
51083;BME280;37131;42.694;23.350;2022-12-10T00:08:36;94860.78;;;7.31;100.00
51083;BME280;37131;42.694;23.350;2022-12-10T00:11:05;94867.38;;;7.27;100.00
51083;BME280;37131;42.694;23.350;2022-12-10T00:13:30;94878.84;;;7.38;100.00
51083;BME280;37131;42.694;23.350;2022-12-10T00:15:58;94883.22;;;7.44;100.00
51083;BME280;37131;42.694;23.350;2022-12-10T00:18:24;94873.88;;;7.36;100.00
51083;BME280;37131;42.694;23.350;2022-12-10T00:20:49;94868.25;;;7.40;100.00
51083;BME280;37131;42.694;23.350;2022-12-10T00:23:14;94862.78;;;7.54;100.00
51083;BME280;37131;42.694;23.350;2022-12-10T00:25:39;94853.66;;;7.45;100.00
51083;BME280;37131;42.694;23.350;2022-12-10T00:28:05;94857.28;;;7.44;100.00
51083;BME280;37131;42.694;23.350;2022-12-10T00:30:30;94849.41;;;7.51;100.00
51083;BME280;37131;42.694;23.350;2022-12-10T00:32:55;94852.34;;;7.36;100.00
51083;BME280;37131;42.694;23.350;2022-12-10T00:35:20;94871.13;;;7.57;100.00
51083;BME280;37131;42.694;23.350;2022-12-10T00:37:46;94881.44;;;7.63;100.00
51083;BME280;37131;42.694;23.350;2022-12-10T00:40:11;94875.88;;;7.60;100.00
51083;BME280;37131;42.694;23.350;2022-12-10T00:42:36;94858.88;;;7.20;100.00
51083;BME280;37131;42.694;23.350;2022-12-10T00:45:02;94861.50;;;7.38;100.00
51083;BME280;37131;42.694;23.350;2022-12-10T00:47:28;94850.41;;;7.50;100.00
51083;BME280;37131;42.694;23.350;2022-12-10T00:49:53;94845.81;;;7.52;100.00
51083;BME280;37131;42.694;23.350;2022-12-10T00:52:18;94854.34;;;7.78;100.00
51083;BME280;37131;42.694;23.350;2022-12-10T00:54:44;94859.09;;;7.81;100.00
51083;BME280;37131;42.694;23.350;2022-12-10T00:57:09;94862.06;;;7.84;100.00
51083;BME280;37131;42.694;23.350;2022-12-10T00:59:34;94858.31;;;7.80;100.00
51083;BME280;37131;42.694;23.350;2022-12-10T01:01:59;94874.22;;;7.84;100.00
51083;BME280;37131;42.694;23.350;2022-12-10T01:04:25;94859.69;;;8.01;100.00
51083;BME280;37131;42.694;23.350;2022-12-10T01:06:51;94856.56;;;7.93;100.00
51083;BME280;37131;42.694;23.350;2022-12-10T01:09:21;94883.69;;;7.97;100.00
51083;BME280;37131;42.694;23.350;2022-12-10T01:11:47;94868.94;;;7.97;100.00
51083;BME280;37131;42.694;23.350;2022-12-10T01:14:14;94861.03;;;7.67;100.00
51083;BME280;37131;42.694;23.350;2022-12-10T01:16:40;94847.50;;;7.83;100.00
51083;BME280;37131;42.694;23.350;2022-12-10T01:19:05;94839.66;;;7.90;100.00
51083;BME280;37131;42.694;23.350;2022-12-10T01:21:31;94853.53;;;7.96;100.00
51083;BME280;37131;42.694;23.350;2022-12-10T01:23:56;94838.13;;;8.01;100.00
51083;BME280;37131;42.694;23.350;2022-12-10T01:26:23;94852.38;;;8.10;100.00
51083;BME280;37131;42.694;23.350;2022-12-10T01:28:49;94835.81;;;7.93;100.00
51083;BME280;37131;42.694;23.350;2022-12-10T01:31:19;94845.34;;;7.99;100.00
51083;BME280;37131;42.694;23.350;2022-12-10T01:33:45;94868.72;;;7.99;100.00
51083;BME280;37131;42.694;23.350;2022-12-10T01:36:12;94834.22;;;7.73;100.00
51083;BME280;37131;42.694;23.350;2022-12-10T01:38:38;94816.78;;;7.80;100.00
51083;BME280;37131;42.694;23.350;2022-12-10T01:41:04;94839.66;;;7.90;100.00
51083;BME280;37131;42.694;23.350;2022-12-10T01:43:47;94838.03;;;7.70;100.00
51083;BME280;37131;42.694;23.350;2022-12-10T01:46:13;94848.28;;;7.84;100.00
51083;BME280;37131;42.694;23.350;2022-12-10T01:48:38;94840.66;;;7.89;100.00
51083;BME280;37131;42.694;23.350;2022-12-10T01:51:03;94841.09;;;7.86;100.00
51083;BME280;37131;42.694;23.350;2022-12-10T01:53:29;94835.81;;;7.93;100.00
51083;BME280;37131;42.694;23.350;2022-12-10T01:55:54;94844.91;;;8.02;100.00
51083;BME280;37131;42.694;23.350;2022-12-10T01:58:19;94852.38;;;8.10;100.00
51083;BME280;37131;42.694;23.350;2022-12-10T02:01:31;94834.00;;;8.12;100.00
51083;BME280;37131;42.694;23.350;2022-12-10T02:04:20;94835.81;;;7.93;100.00
51083;BME280;37131;42.694;23.350;2022-12-10T02:06:29;94831.78;;;8.15;100.00
51083;BME280;37131;42.694;23.350;2022-12-10T02:09:14;94823.88;;;8.22;100.00
51083;BME280;37131;42.694;23.350;2022-12-10T02:11:46;94836.09;;;8.03;100.00
51083;BME280;37131;42.694;23.350;2022-12-10T02:16:40;94836.25;;;8.08;100.00
51083;BME280;37131;42.694;23.350;2022-12-10T02:21:50;94835.53;;;8.19;100.00
51083;BME280;37131;42.694;23.350;2022-12-10T02:24:18;94833.56;;;8.15;100.00
51083;BME280;37131;42.694;23.350;2022-12-10T02:29:21;94817.19;;;8.14;100.00
51083;BME280;37131;42.694;23.350;2022-12-10T02:32:03;94814.19;;;7.99;100.00
51083;BME280;37131;42.694;23.350;2022-12-10T02:34:30;94815.03;;;8.11;100.00
51083;BME280;37131;42.694;23.350;2022-12-10T02:36:57;94801.81;;;8.31;100.00
51083;BME280;37131;42.694;23.350;2022-12-10T02:39:25;94807.63;;;8.26;100.00
51083;BME280;37131;42.694;23.350;2022-12-10T02:41:53;94819.63;;;8.28;100.00
51083;BME280;37131;42.694;23.350;2022-12-10T02:44:19;94813.16;;;8.18;100.00
51083;BME280;37131;42.694;23.350;2022-12-10T02:46:45;94801.13;;;8.05;100.00
51083;BME280;37131;42.694;23.350;2022-12-10T02:49:13;94802.78;;;8.00;100.00
51083;BME280;37131;42.694;23.350;2022-12-10T02:51:39;94805.22;;;8.13;100.00
51083;BME280;37131;42.694;23.350;2022-12-10T02:54:05;94800.72;;;8.20;100.00
51083;BME280;37131;42.694;23.350;2022-12-10T02:56:44;94799.75;;;8.03;100.00
51083;BME280;37131;42.694;23.350;2022-12-10T03:07:02;94796.09;;;8.11;100.00
51083;BME280;37131;42.694;23.350;2022-12-10T03:09:34;94796.44;;;7.96;100.00
51083;BME280;37131;42.694;23.350;2022-12-10T03:12:02;94798.91;;;8.09;100.00
51083;BME280;37131;42.694;23.350;2022-12-10T03:14:31;94794.81;;;8.13;100.00
51083;BME280;37131;42.694;23.350;2022-12-10T03:17:00;94799.63;;;8.28;100.00
51083;BME280;37131;42.694;23.350;2022-12-10T03:19:34;94800.50;;;8.22;100.00
51083;BME280;37131;42.694;23.350;2022-12-10T03:22:01;94782.88;;;8.12;100.00
51083;BME280;37131;42.694;23.350;2022-12-10T03:24:27;94786.41;;;7.99;100.00
51083;BME280;37131;42.694;23.350;2022-12-10T03:26:52;94795.50;;;8.08;100.00
51083;BME280;37131;42.694;23.350;2022-12-10T03:29:20;94798.28;;;8.25;100.00
51083;BME280;37131;42.694;23.350;2022-12-10T03:31:46;94781.94;;;8.37;100.00
51083;BME280;37131;42.694;23.350;2022-12-10T03:34:12;94784.63;;;8.30;100.00
51083;BME280;37131;42.694;23.350;2022-12-10T03:36:38;94797.47;;;8.25;100.00
51083;BME280;37131;42.694;23.350;2022-12-10T03:39:04;94785.78;;;8.34;100.00
51083;BME280;37131;42.694;23.350;2022-12-10T03:41:30;94789.38;;;8.33;100.00
51083;BME280;37131;42.694;23.350;2022-12-10T03:43:56;94781.88;;;8.25;100.00
51083;BME280;37131;42.694;23.350;2022-12-10T03:46:27;94784.00;;;8.16;100.00
51083;BME280;37131;42.694;23.350;2022-12-10T03:48:53;94776.69;;;8.25;100.00
51083;BME280;37131;42.694;23.350;2022-12-10T03:51:18;94778.78;;;8.35;100.00
51083;BME280;37131;42.694;23.350;2022-12-10T03:53:44;94769.31;;;8.40;100.00
51083;BME280;37131;42.694;23.350;2022-12-10T03:56:10;94734.88;;;8.15;100.00
51083;BME280;37131;42.694;23.350;2022-12-10T03:58:35;94765.44;;;8.31;100.00
51083;BME280;37131;42.694;23.350;2022-12-10T04:01:01;94752.66;;;8.30;100.00
51083;BME280;37131;42.694;23.350;2022-12-10T04:03:26;94764.09;;;8.40;100.00
51083;BME280;37131;42.694;23.350;2022-12-10T04:05:51;94765.69;;;8.41;100.00
51083;BME280;37131;42.694;23.350;2022-12-10T04:08:17;94766.31;;;8.55;100.00
51083;BME280;37131;42.694;23.350;2022-12-10T04:10:42;94767.38;;;8.36;100.00
51083;BME280;37131;42.694;23.350;2022-12-10T04:13:07;94770.25;;;8.46;100.00
51083;BME280;37131;42.694;23.350;2022-12-10T04:15:51;94772.22;;;8.63;100.00
51083;BME280;37131;42.694;23.350;2022-12-10T04:18:35;94772.28;;;8.44;100.00
51083;BME280;37131;42.694;23.350;2022-12-10T04:21:00;94775.72;;;8.38;100.00
51083;BME280;37131;42.694;23.350;2022-12-10T04:23:44;94779.84;;;8.15;100.00
51083;BME280;37131;42.694;23.350;2022-12-10T04:26:28;94786.97;;;8.20;100.00
51083;BME280;37131;42.694;23.350;2022-12-10T04:29:11;94786.97;;;8.20;100.00
51083;BME280;37131;42.694;23.350;2022-12-10T04:31:37;94777.25;;;8.15;100.00
51083;BME280;37131;42.694;23.350;2022-12-10T04:34:02;94776.63;;;8.32;100.00
51083;BME280;37131;42.694;23.350;2022-12-10T04:36:27;94781.34;;;8.04;100.00
51083;BME280;37131;42.694;23.350;2022-12-10T04:38:53;94784.66;;;8.12;100.00
51083;BME280;37131;42.694;23.350;2022-12-10T04:41:18;94778.25;;;8.14;100.00
51083;BME280;37131;42.694;23.350;2022-12-10T04:43:43;94782.34;;;8.22;100.00
51083;BME280;37131;42.694;23.350;2022-12-10T04:46:09;94764.06;;;8.29;100.00
51083;BME280;37131;42.694;23.350;2022-12-10T04:48:35;94760.06;;;8.14;100.00
51083;BME280;37131;42.694;23.350;2022-12-10T04:51:00;94767.75;;;8.09;100.00
51083;BME280;37131;42.694;23.350;2022-12-10T04:53:25;94784.72;;;8.23;100.00
51083;BME280;37131;42.694;23.350;2022-12-10T04:55:50;94779.91;;;8.39;100.00
51083;BME280;37131;42.694;23.350;2022-12-10T04:58:16;94779.28;;;8.25;100.00
51083;BME280;37131;42.694;23.350;2022-12-10T05:00:41;94789.16;;;8.35;100.00
51083;BME280;37131;42.694;23.350;2022-12-10T05:03:06;94792.09;;;8.38;100.00
51083;BME280;37131;42.694;23.350;2022-12-10T05:05:33;94788.16;;;8.36;100.00
51083;BME280;37131;42.694;23.350;2022-12-10T05:07:58;94795.84;;;8.42;100.00
51083;BME280;37131;42.694;23.350;2022-12-10T05:10:23;94790.75;;;8.36;100.00
51083;BME280;37131;42.694;23.350;2022-12-10T05:12:49;94794.91;;;8.37;100.00
51083;BME280;37131;42.694;23.350;2022-12-10T05:15:14;94787.25;;;8.42;100.00
51083;BME280;37131;42.694;23.350;2022-12-10T05:17:39;94781.47;;;8.58;100.00
51083;BME280;37131;42.694;23.350;2022-12-10T05:20:05;94780.59;;;8.34;100.00
51083;BME280;37131;42.694;23.350;2022-12-10T05:22:30;94772.56;;;8.36;100.00
51083;BME280;37131;42.694;23.350;2022-12-10T05:25:14;94774.94;;;8.37;100.00
51083;BME280;37131;42.694;23.350;2022-12-10T05:27:39;94767.16;;;8.37;100.00
51083;BME280;37131;42.694;23.350;2022-12-10T05:30:05;94759.47;;;8.42;100.00
51083;BME280;37131;42.694;23.350;2022-12-10T05:32:30;94754.91;;;8.45;100.00
51083;BME280;37131;42.694;23.350;2022-12-10T05:34:55;94755.78;;;8.50;100.00
51083;BME280;37131;42.694;23.350;2022-12-10T05:37:20;94758.56;;;8.37;100.00
51083;BME280;37131;42.694;23.350;2022-12-10T05:39:47;94766.75;;;8.22;100.00
51083;BME280;37131;42.694;23.350;2022-12-10T05:42:12;94763.19;;;8.35;100.00
51083;BME280;37131;42.694;23.350;2022-12-10T05:44:37;94768.06;;;8.43;100.00
51083;BME280;37131;42.694;23.350;2022-12-10T05:47:03;94773.41;;;8.48;100.00
51083;BME280;37131;42.694;23.350;2022-12-10T05:49:28;94787.25;;;8.42;100.00
51083;BME280;37131;42.694;23.350;2022-12-10T05:51:54;94782.47;;;8.57;100.00
51083;BME280;37131;42.694;23.350;2022-12-10T05:54:19;94784.97;;;8.34;100.00
51083;BME280;37131;42.694;23.350;2022-12-10T05:56:44;94787.91;;;8.25;100.00
51083;BME280;37131;42.694;23.350;2022-12-10T05:59:10;94796.91;;;8.23;100.00
51083;BME280;37131;42.694;23.350;2022-12-10T06:01:35;94789.69;;;8.25;100.00
51083;BME280;37131;42.694;23.350;2022-12-10T06:04:02;94790.38;;;8.32;100.00
51083;BME280;37131;42.694;23.350;2022-12-10T06:06:29;94787.84;;;8.44;100.00
51083;BME280;37131;42.694;23.350;2022-12-10T06:08:55;94776.16;;;8.53;100.00
51083;BME280;37131;42.694;23.350;2022-12-10T06:11:20;94797.50;;;8.55;100.00
51083;BME280;37131;42.694;23.350;2022-12-10T06:13:46;94797.09;;;8.70;100.00
51083;BME280;37131;42.694;23.350;2022-12-10T06:16:15;94798.94;;;8.51;100.00
51083;BME280;37131;42.694;23.350;2022-12-10T06:18:41;94798.19;;;8.63;100.00
51083;BME280;37131;42.694;23.350;2022-12-10T06:21:07;94791.31;;;8.56;100.00
51083;BME280;37131;42.694;23.350;2022-12-10T06:23:33;94786.00;;;8.63;100.00
51083;BME280;37131;42.694;23.350;2022-12-10T06:26:02;94790.75;;;8.66;100.00
51083;BME280;37131;42.694;23.350;2022-12-10T06:28:27;94791.78;;;8.65;100.00
51083;BME280;37131;42.694;23.350;2022-12-10T06:30:53;94786.38;;;8.78;100.00
51083;BME280;37131;42.694;23.350;2022-12-10T06:33:18;94777.91;;;8.83;100.00
51083;BME280;37131;42.694;23.350;2022-12-10T06:35:43;94766.22;;;8.74;100.00
51083;BME280;37131;42.694;23.350;2022-12-10T06:38:08;94761.25;;;8.72;100.00
51083;BME280;37131;42.694;23.350;2022-12-10T06:40:33;94759.78;;;8.65;100.00
51083;BME280;37131;42.694;23.350;2022-12-10T06:42:59;94770.09;;;8.71;100.00
51083;BME280;37131;42.694;23.350;2022-12-10T06:45:24;94776.84;;;8.72;100.00
51083;BME280;37131;42.694;23.350;2022-12-10T06:47:49;94778.56;;;8.78;100.00
51083;BME280;37131;42.694;23.350;2022-12-10T06:50:15;94776.44;;;8.87;100.00
51083;BME280;37131;42.694;23.350;2022-12-10T06:52:40;94768.72;;;8.69;100.00
51083;BME280;37131;42.694;23.350;2022-12-10T06:55:05;94782.53;;;8.93;100.00
51083;BME280;37131;42.694;23.350;2022-12-10T06:57:30;94792.69;;;8.94;100.00
51083;BME280;37131;42.694;23.350;2022-12-10T06:59:56;94803.25;;;9.00;100.00
51083;BME280;37131;42.694;23.350;2022-12-10T07:02:21;94813.88;;;9.10;100.00
51083;BME280;37131;42.694;23.350;2022-12-10T07:04:46;94813.19;;;9.03;100.00
51083;BME280;37131;42.694;23.350;2022-12-10T07:07:12;94810.94;;;9.18;100.00
51083;BME280;37131;42.694;23.350;2022-12-10T07:09:37;94812.06;;;9.10;100.00
51083;BME280;37131;42.694;23.350;2022-12-10T07:12:03;94805.03;;;8.75;100.00
51083;BME280;37131;42.694;23.350;2022-12-10T07:14:28;94796.16;;;8.65;100.00
51083;BME280;37131;42.694;23.350;2022-12-10T07:16:53;94797.31;;;8.81;100.00
51083;BME280;37131;42.694;23.350;2022-12-10T07:19:18;94800.84;;;8.86;100.00
51083;BME280;37131;42.694;23.350;2022-12-10T07:21:44;94789.78;;;8.91;100.00
51083;BME280;37131;42.694;23.350;2022-12-10T07:24:15;94781.97;;;9.03;100.00
51083;BME280;37131;42.694;23.350;2022-12-10T07:26:41;94786.06;;;9.10;100.00
51083;BME280;37131;42.694;23.350;2022-12-10T07:29:07;94770.56;;;9.16;100.00
51083;BME280;37131;42.694;23.350;2022-12-10T07:31:35;94761.63;;;9.23;100.00
51083;BME280;37131;42.694;23.350;2022-12-10T07:34:00;94764.78;;;9.37;100.00
51083;BME280;37131;42.694;23.350;2022-12-10T07:36:26;94765.22;;;8.87;100.00
51083;BME280;37131;42.694;23.350;2022-12-10T07:38:52;94759.94;;;8.93;100.00
51083;BME280;37131;42.694;23.350;2022-12-10T07:41:17;94772.50;;;9.20;100.00
51083;BME280;37131;42.694;23.350;2022-12-10T07:43:43;94770.00;;;9.25;100.00
51083;BME280;37131;42.694;23.350;2022-12-10T07:46:10;94761.72;;;8.81;100.00
51083;BME280;37131;42.694;23.350;2022-12-10T07:48:36;94761.38;;;8.77;100.00
51083;BME280;37131;42.694;23.350;2022-12-10T07:51:02;94767.75;;;9.05;100.00
51083;BME280;37131;42.694;23.350;2022-12-10T07:53:27;94777.78;;;9.25;100.00
51083;BME280;37131;42.694;23.350;2022-12-10T07:55:53;94769.75;;;9.39;100.00
51083;BME280;37131;42.694;23.350;2022-12-10T07:58:18;94767.81;;;9.46;100.00
51083;BME280;37131;42.694;23.350;2022-12-10T08:00:43;94754.59;;;9.47;100.00
51083;BME280;37131;42.694;23.350;2022-12-10T08:03:08;94753.31;;;9.62;100.00
51083;BME280;37131;42.694;23.350;2022-12-10T08:05:34;94755.38;;;9.60;100.00
51083;BME280;37131;42.694;23.350;2022-12-10T08:07:59;94740.50;;;9.72;100.00
51083;BME280;37131;42.694;23.350;2022-12-10T08:10:24;94739.91;;;9.29;100.00
51083;BME280;37131;42.694;23.350;2022-12-10T08:12:50;94735.59;;;9.47;100.00
51083;BME280;37131;42.694;23.350;2022-12-10T08:15:15;94737.34;;;9.70;100.00
51083;BME280;37131;42.694;23.350;2022-12-10T08:17:40;94743.50;;;9.40;100.00
51083;BME280;37131;42.694;23.350;2022-12-10T08:20:06;94746.22;;;9.45;100.00
51083;BME280;37131;42.694;23.350;2022-12-10T08:22:32;94747.09;;;9.63;100.00
51083;BME280;37131;42.694;23.350;2022-12-10T08:24:59;94740.56;;;9.48;100.00
51083;BME280;37131;42.694;23.350;2022-12-10T08:27:24;94733.75;;;9.59;100.00
51083;BME280;37131;42.694;23.350;2022-12-10T08:29:49;94729.91;;;9.50;100.00
51083;BME280;37131;42.694;23.350;2022-12-10T08:32:14;94733.47;;;9.32;100.00
51083;BME280;37131;42.694;23.350;2022-12-10T08:34:40;94731.94;;;9.60;100.00
51083;BME280;37131;42.694;23.350;2022-12-10T08:37:05;94725.63;;;9.84;100.00
51083;BME280;37131;42.694;23.350;2022-12-10T08:39:30;94744.53;;;9.39;100.00
51083;BME280;37131;42.694;23.350;2022-12-10T08:41:56;94726.13;;;9.70;100.00
51083;BME280;37131;42.694;23.350;2022-12-10T08:44:21;94717.75;;;9.79;100.00
51083;BME280;37131;42.694;23.350;2022-12-10T08:46:46;94710.88;;;9.73;100.00
51083;BME280;37131;42.694;23.350;2022-12-10T08:49:11;94709.03;;;9.74;100.00
51083;BME280;37131;42.694;23.350;2022-12-10T08:51:37;94715.28;;;10.01;100.00
51083;BME280;37131;42.694;23.350;2022-12-10T08:54:02;94701.84;;;9.93;100.00
51083;BME280;37131;42.694;23.350;2022-12-10T08:56:27;94697.00;;;10.13;100.00
51083;BME280;37131;42.694;23.350;2022-12-10T08:58:52;94700.78;;;10.06;100.00
51083;BME280;37131;42.694;23.350;2022-12-10T09:01:18;94695.16;;;10.14;100.00
51083;BME280;37131;42.694;23.350;2022-12-10T09:03:43;94684.44;;;10.27;100.00
51083;BME280;37131;42.694;23.350;2022-12-10T09:06:10;94682.50;;;10.34;100.00
51083;BME280;37131;42.694;23.350;2022-12-10T09:08:36;94688.53;;;10.52;100.00
51083;BME280;37131;42.694;23.350;2022-12-10T09:11:09;94684.88;;;10.36;100.00
51083;BME280;37131;42.694;23.350;2022-12-10T09:13:35;94697.81;;;10.31;100.00
51083;BME280;37131;42.694;23.350;2022-12-10T09:16:00;94692.50;;;10.26;100.00
51083;BME280;37131;42.694;23.350;2022-12-10T09:18:26;94693.38;;;10.14;100.00
51083;BME280;37131;42.694;23.350;2022-12-10T09:20:51;94668.00;;;10.39;100.00
51083;BME280;37131;42.694;23.350;2022-12-10T09:23:16;94674.38;;;10.31;100.00
51083;BME280;37131;42.694;23.350;2022-12-10T09:25:41;94687.41;;;10.48;100.00
51083;BME280;37131;42.694;23.350;2022-12-10T09:28:07;94685.16;;;10.23;100.00
51083;BME280;37131;42.694;23.350;2022-12-10T09:30:32;94665.16;;;10.57;100.00
51083;BME280;37131;42.694;23.350;2022-12-10T09:32:57;94665.22;;;10.62;100.00
51083;BME280;37131;42.694;23.350;2022-12-10T09:35:23;94670.50;;;10.84;100.00
51083;BME280;37131;42.694;23.350;2022-12-10T09:37:48;94664.59;;;11.11;100.00
51083;BME280;37131;42.694;23.350;2022-12-10T09:40:17;94664.72;;;11.21;100.00
51083;BME280;37131;42.694;23.350;2022-12-10T09:42:46;94658.84;;;11.31;100.00
51083;BME280;37131;42.694;23.350;2022-12-10T09:47:43;94624.53;;;10.78;100.00
51083;BME280;37131;42.694;23.350;2022-12-10T09:50:25;94618.06;;;11.03;100.00
51083;BME280;37131;42.694;23.350;2022-12-10T09:52:51;94617.75;;;11.21;100.00
51083;BME280;37131;42.694;23.350;2022-12-10T09:55:19;94624.94;;;11.58;100.00
51083;BME280;37131;42.694;23.350;2022-12-10T09:57:50;94632.22;;;11.79;100.00
51083;BME280;37131;42.694;23.350;2022-12-10T10:02:42;94622.09;;;12.15;100.00
51083;BME280;37131;42.694;23.350;2022-12-10T10:07:39;94617.38;;;12.44;100.00
51083;BME280;37131;42.694;23.350;2022-12-10T10:10:20;94625.84;;;12.61;99.10
51083;BME280;37131;42.694;23.350;2022-12-10T10:12:46;94617.75;;;12.58;97.80
51083;BME280;37131;42.694;23.350;2022-12-10T10:15:13;94615.03;;;11.83;100.00
51083;BME280;37131;42.694;23.350;2022-12-10T10:17:39;94614.28;;;11.87;100.00
51083;BME280;37131;42.694;23.350;2022-12-10T10:20:07;94611.72;;;12.20;100.00
51083;BME280;37131;42.694;23.350;2022-12-10T10:22:33;94617.72;;;12.20;99.59
51083;BME280;37131;42.694;23.350;2022-12-10T10:24:58;94617.53;;;12.27;100.00
51083;BME280;37131;42.694;23.350;2022-12-10T10:27:28;94599.00;;;12.34;100.00
51083;BME280;37131;42.694;23.350;2022-12-10T10:29:54;94597.63;;;12.63;100.00
51083;BME280;37131;42.694;23.350;2022-12-10T10:32:21;94598.09;;;12.55;96.91
51083;BME280;37131;42.694;23.350;2022-12-10T10:34:51;94578.19;;;12.49;97.67
51083;BME280;37131;42.694;23.350;2022-12-10T10:37:21;94569.88;;;12.57;97.18
51083;BME280;37131;42.694;23.350;2022-12-10T10:39:48;94566.91;;;12.86;95.05
51083;BME280;37131;42.694;23.350;2022-12-10T10:42:18;94553.34;;;13.05;95.49
51083;BME280;37131;42.694;23.350;2022-12-10T10:44:46;94556.66;;;12.79;95.80
51083;BME280;37131;42.694;23.350;2022-12-10T10:47:28;94560.06;;;12.85;95.43
51083;BME280;37131;42.694;23.350;2022-12-10T10:49:53;94567.28;;;13.21;94.09
51083;BME280;37131;42.694;23.350;2022-12-10T10:52:19;94574.34;;;13.25;93.52
51083;BME280;37131;42.694;23.350;2022-12-10T10:54:45;94526.94;;;13.11;93.00
51083;BME280;37131;42.694;23.350;2022-12-10T10:59:42;94553.09;;;13.01;97.03
51083;BME280;37131;42.694;23.350;2022-12-10T11:02:18;94553.00;;;12.80;95.65
51083;BME280;37131;42.694;23.350;2022-12-10T11:04:48;94558.94;;;12.66;97.19
51083;BME280;37131;42.694;23.350;2022-12-10T11:07:33;94546.56;;;13.09;96.25
51083;BME280;37131;42.694;23.350;2022-12-10T11:09:58;94537.75;;;13.30;95.03
51083;BME280;37131;42.694;23.350;2022-12-10T11:12:28;94536.22;;;13.40;95.01
51083;BME280;37131;42.694;23.350;2022-12-10T11:14:55;94527.53;;;13.29;93.61
51083;BME280;37131;42.694;23.350;2022-12-10T11:17:21;94515.72;;;13.26;95.06
51083;BME280;37131;42.694;23.350;2022-12-10T11:22:27;94492.22;;;13.52;94.38
51083;BME280;37131;42.694;23.350;2022-12-10T11:24:52;94488.00;;;13.30;95.07
51083;BME280;37131;42.694;23.350;2022-12-10T11:30:09;94483.59;;;13.51;94.92
51083;BME280;37131;42.694;23.350;2022-12-10T11:38:15;94474.44;;;13.44;93.36
51083;BME280;37131;42.694;23.350;2022-12-10T11:40:48;94481.25;;;13.60;92.48
51083;BME280;37131;42.694;23.350;2022-12-10T11:53:55;94482.56;;;13.89;91.91
51083;BME280;37131;42.694;23.350;2022-12-10T11:56:25;94477.84;;;13.96;90.65
51083;BME280;37131;42.694;23.350;2022-12-10T12:07:23;94433.59;;;13.68;91.05
51083;BME280;37131;42.694;23.350;2022-12-10T12:14:56;94453.97;;;13.97;89.46
51083;BME280;37131;42.694;23.350;2022-12-10T12:17:24;94452.94;;;13.98;89.55
51083;BME280;37131;42.694;23.350;2022-12-10T12:19:52;94444.56;;;13.91;88.48
51083;BME280;37131;42.694;23.350;2022-12-10T12:22:33;94441.44;;;13.48;92.26
51083;BME280;37131;42.694;23.350;2022-12-10T12:24:59;94433.03;;;13.66;91.90
51083;BME280;37131;42.694;23.350;2022-12-10T12:27:31;94391.94;;;13.41;92.11
51083;BME280;37131;42.694;23.350;2022-12-10T12:30:06;94430.69;;;13.65;92.43
51083;BME280;37131;42.694;23.350;2022-12-10T12:32:37;94432.78;;;13.73;91.82
51083;BME280;37131;42.694;23.350;2022-12-10T12:40:32;94406.56;;;13.78;91.97
51083;BME280;37131;42.694;23.350;2022-12-10T12:43:02;94397.13;;;13.88;92.13
51083;BME280;37131;42.694;23.350;2022-12-10T12:45:36;94390.88;;;13.73;91.94
51083;BME280;37131;42.694;23.350;2022-12-10T12:48:11;94386.16;;;13.65;92.22
51083;BME280;37131;42.694;23.350;2022-12-10T12:50:59;94388.75;;;13.75;91.32
51083;BME280;37131;42.694;23.350;2022-12-10T12:53:25;94394.78;;;13.76;91.22
51083;BME280;37131;42.694;23.350;2022-12-10T13:01:20;94393.75;;;13.77;91.14
51083;BME280;37131;42.694;23.350;2022-12-10T13:03:49;94383.00;;;13.78;90.29
51083;BME280;37131;42.694;23.350;2022-12-10T13:06:18;94384.84;;;13.62;91.33
51083;BME280;37131;42.694;23.350;2022-12-10T13:08:44;94374.38;;;13.57;92.00
51083;BME280;37131;42.694;23.350;2022-12-10T13:13:39;94364.44;;;13.64;90.83
51083;BME280;37131;42.694;23.350;2022-12-10T13:18:53;94373.06;;;13.55;92.21
51083;BME280;37131;42.694;23.350;2022-12-10T13:21:34;94384.09;;;13.46;92.34
51083;BME280;37131;42.694;23.350;2022-12-10T13:24:09;94373.63;;;13.46;92.25
51083;BME280;37131;42.694;23.350;2022-12-10T13:26:35;94366.00;;;13.45;92.26
51083;BME280;37131;42.694;23.350;2022-12-10T13:29:11;94357.66;;;13.38;92.10
51083;BME280;37131;42.694;23.350;2022-12-10T13:31:37;94351.59;;;13.47;92.08
51083;BME280;37131;42.694;23.350;2022-12-10T13:41:29;94315.50;;;13.08;94.17
51083;BME280;37131;42.694;23.350;2022-12-10T13:49:27;94303.72;;;12.95;95.92
51083;BME280;37131;42.694;23.350;2022-12-10T13:52:05;94307.91;;;12.96;95.46
51083;BME280;37131;42.694;23.350;2022-12-10T13:59:50;94324.13;;;13.04;93.24
51083;BME280;37131;42.694;23.350;2022-12-10T14:04:47;94323.59;;;13.02;93.61
51083;BME280;37131;42.694;23.350;2022-12-10T14:07:16;94319.66;;;13.09;92.41
51083;BME280;37131;42.694;23.350;2022-12-10T14:09:45;94317.06;;;13.04;92.71
51083;BME280;37131;42.694;23.350;2022-12-10T14:12:16;94302.66;;;13.02;92.86
51083;BME280;37131;42.694;23.350;2022-12-10T14:14:43;94311.03;;;12.98;93.47
51083;BME280;37131;42.694;23.350;2022-12-10T14:17:12;94321.78;;;13.02;93.24
51083;BME280;37131;42.694;23.350;2022-12-10T14:19:39;94314.16;;;13.01;93.55
51083;BME280;37131;42.694;23.350;2022-12-10T14:22:05;94307.63;;;12.93;94.27
51083;BME280;37131;42.694;23.350;2022-12-10T14:24:34;94302.41;;;12.93;94.61
51083;BME280;37131;42.694;23.350;2022-12-10T14:27:13;94294.28;;;12.89;94.60